Weather History for Hebron, NE

Change the Weather History Date:

Monday, November 19, 2012

  Actual Average Record
Temperature  
Mean Temperature 52 °F -  
Max Temperature 67 °F 50 °F 77 °F (2007)
Min Temperature 38 °F 27 °F 11 °F (1957)
Degree Days  
Heating Degree Days 12    
Growing Degree Days 2 (Base 50)    
Moisture  
Dew Point 37 °F    
Average Humidity 64    
Maximum Humidity 90    
Minimum Humidity 33    
Precipitation  
Precipitation 0.00 in - - ()
Sea Level Pressure  
Sea Level Pressure 30.07 in    
Wind  
Wind Speed 6 mph (West)    
Max Wind Speed 13 mph    
Max Gust Speed -    
Visibility 10 miles    
Events      
Averages and records for this station are not official NWS values.
T = Trace of Precipitation, MM = Missing Value Source: NWS Daily Summary

Daily Weather History Graph

Daily Weather History Graph

Search for Another Location

Airport:

Trip Planner

Search our weather history database for the weather conditions in past years. The results will help you decide how hot, cold, wet, or windy it might be!

Date:

Astronomy

Nov. 19, 2012 Rise Set
Actual Time 7:21 AM CST 5:10 PM CST
Civil Twilight 6:51 AM CST 5:39 PM CST
Nautical Twilight 6:18 AM CST 6:12 PM CST
Astronomical Twilight 5:46 AM CST 6:45 PM CST
Moon 12:24 PM CST (11/19) 11:39 PM CST (11/19)
Length of Visible Light 10h 48m
Length of Day
9h 49m
Waxing Crescent, 41% of the Moon is Illuminated
Nov 19
Waxing Crescent
Nov 20
First Quarter
Nov 28
Full
Dec 6
Last Quarter
Dec 13
New

Hourly Weather History & Observations

Time (CST) Temp. Windchill Dew Point Humidity Pressure Visibility Wind Dir Wind Speed Gust Speed Precip Events Conditions
12:15 AM 49.3 °F - 37.0 °F 63% 30.00 in 10.0 mi SSE 10.4 mph - N/A   Clear
12:55 AM 47.8 °F - 37.2 °F 67% 30.00 in 10.0 mi South 6.9 mph - N/A   Clear
1:15 AM 46.9 °F - 37.0 °F 68% 30.00 in 10.0 mi South 6.9 mph - N/A   Clear
1:35 AM 46.0 °F 42.5 °F 37.0 °F 71% 29.99 in 10.0 mi South 6.9 mph - N/A   Clear
1:55 AM 45.9 °F 42.9 °F 37.2 °F 72% 30.00 in 10.0 mi South 5.8 mph - N/A   Clear
2:15 AM 44.8 °F 41.6 °F 37.0 °F 74% 30.00 in 10.0 mi South 5.8 mph - N/A   Clear
2:35 AM 44.4 °F - 36.7 °F 74% 30.00 in 10.0 mi Calm Calm - N/A   Clear
2:55 AM 42.3 °F - 35.6 °F 77% 30.01 in 10.0 mi Calm Calm - N/A   Clear
3:15 AM 43.0 °F - 36.1 °F 77% 30.01 in 10.0 mi Calm Calm - N/A   Clear
3:35 AM 42.4 °F 40.7 °F 36.5 °F 79% 30.02 in 10.0 mi SW 3.5 mph - N/A   Clear
3:55 AM 41.4 °F 38.4 °F 35.8 °F 81% 30.01 in 10.0 mi SSW 4.6 mph - N/A   Clear
4:15 AM 42.1 °F 38.4 °F 36.5 °F 81% 30.02 in 10.0 mi SSW 5.8 mph - N/A   Clear
4:35 AM 41.0 °F 36.4 °F 36.1 °F 83% 30.01 in 10.0 mi SSW 6.9 mph - N/A   Clear
4:55 AM 41.5 °F 36.4 °F 36.7 °F 83% 30.02 in 10.0 mi SW 8.1 mph - N/A   Clear
5:15 AM 41.2 °F 38.2 °F 36.5 °F 83% 30.02 in 10.0 mi SW 4.6 mph - N/A   Clear
5:35 AM 41.0 °F 36.4 °F 36.5 °F 84% 30.02 in 10.0 mi SSW 6.9 mph - N/A   Clear
5:55 AM 41.0 °F 35.2 °F 36.7 °F 85% 30.01 in 10.0 mi SSW 9.2 mph - N/A   Clear
6:15 AM 40.1 °F 35.3 °F 36.3 °F 86% 30.02 in 10.0 mi SW 6.9 mph - N/A   Clear
6:35 AM 40.3 °F 34.9 °F 36.7 °F 87% 30.03 in 10.0 mi WSW 8.1 mph - N/A   Clear
6:55 AM 38.5 °F - 35.6 °F 89% 30.03 in 10.0 mi Calm Calm - N/A   Clear
7:35 AM 38.5 °F 34.1 °F 35.8 °F 90% 30.04 in 10.0 mi WSW 5.8 mph - N/A   Clear
7:55 AM 39.2 °F 35.9 °F 36.1 °F 89% 30.04 in 10.0 mi WSW 4.6 mph - N/A   Clear
8:15 AM 41.2 °F 37.3 °F 37.0 °F 85% 30.05 in 10.0 mi WSW 5.8 mph - N/A   Clear
8:35 AM 43.0 °F 37.7 °F 37.6 °F 81% 30.05 in 10.0 mi WSW 9.2 mph - N/A   Clear
8:55 AM 44.6 °F 41.4 °F 37.9 °F 77% 30.07 in 10.0 mi West 5.8 mph - N/A   Clear
9:15 AM 46.2 °F 42.7 °F 38.3 °F 74% 30.08 in 10.0 mi West 6.9 mph - N/A   Clear
9:35 AM 47.8 °F - 38.1 °F 69% 30.09 in 10.0 mi West 6.9 mph - N/A   Clear
9:55 AM 51.1 °F - 38.3 °F 62% 30.08 in 10.0 mi West 6.9 mph - N/A   Clear
10:15 AM 53.8 °F - 38.1 °F 55% 30.09 in 10.0 mi WNW 8.1 mph - N/A   Clear
10:35 AM 55.2 °F - 37.8 °F 52% 30.09 in 10.0 mi WNW 6.9 mph - N/A   Clear
10:55 AM 56.7 °F - 38.1 °F 50% 30.09 in 10.0 mi WNW 6.9 mph - N/A   Clear
11:15 AM 57.4 °F - 38.5 °F 49% 30.09 in 10.0 mi NW 10.4 mph - N/A   Clear
11:35 AM 57.7 °F - 38.8 °F 49% 30.09 in 10.0 mi WNW 9.2 mph - N/A   Clear
11:55 AM 58.3 °F - 39.6 °F 50% 30.09 in 10.0 mi WNW 9.2 mph - N/A   Clear
12:15 PM 59.0 °F - 39.7 °F 49% 30.08 in 10.0 mi NW 5.8 mph - N/A   Clear
12:35 PM 58.6 °F - 39.6 °F 49% 30.08 in 10.0 mi WNW 8.1 mph - N/A   Clear
12:55 PM 61.5 °F - 39.2 °F 44% 30.08 in 10.0 mi WNW 9.2 mph - N/A   Clear
1:15 PM 60.8 °F - 38.7 °F 44% 30.08 in 10.0 mi WNW 8.1 mph - N/A   Clear
1:35 PM 63.0 °F - 38.8 °F 41% 30.07 in 10.0 mi WNW 12.7 mph - N/A   Clear
1:55 PM 64.0 °F - 38.8 °F 39% 30.06 in 10.0 mi WNW 8.1 mph - N/A   Clear
2:15 PM 65.1 °F - 38.8 °F 38% 30.06 in 10.0 mi West 8.1 mph - N/A   Clear
2:35 PM 66.2 °F - 38.5 °F 36% 30.06 in 10.0 mi WNW 6.9 mph - N/A   Clear
2:55 PM 67.3 °F - 37.8 °F 34% 30.05 in 10.0 mi WNW 9.2 mph - N/A   Clear
3:15 PM 67.1 °F - 37.4 °F 34% 30.06 in 10.0 mi NW 6.9 mph - N/A   Clear
3:35 PM 67.3 °F - 37.4 °F 33% 30.06 in 10.0 mi NW 8.1 mph - N/A   Clear
3:55 PM 67.1 °F - 37.6 °F 34% 30.06 in 10.0 mi NW 6.9 mph - N/A   Clear
4:15 PM 66.4 °F - 37.2 °F 34% 30.07 in 10.0 mi NW 8.1 mph - N/A   Clear
4:35 PM 64.6 °F - 37.4 °F 37% 30.07 in 10.0 mi NW 5.8 mph - N/A   Clear
4:55 PM 61.9 °F - 37.2 °F 40% 30.08 in 10.0 mi NNW 4.6 mph - N/A   Clear
5:15 PM 59.5 °F - 37.8 °F 44% 30.08 in 10.0 mi WNW 3.5 mph - N/A   Clear
5:35 PM 56.3 °F - 37.2 °F 49% 30.09 in 10.0 mi West 3.5 mph - N/A   Clear
5:55 PM 54.9 °F - 37.6 °F 52% 30.09 in 10.0 mi WNW 3.5 mph - N/A   Clear
6:15 PM 50.4 °F - 36.5 °F 59% 30.10 in 10.0 mi Calm Calm - N/A   Clear
6:35 PM 49.6 °F - 36.9 °F 61% 30.11 in 10.0 mi Calm Calm - N/A   Clear
6:55 PM 46.6 °F - 36.0 °F 67% 30.11 in 10.0 mi Calm Calm - N/A   Clear
7:15 PM 48.7 °F - 36.3 °F 62% 30.11 in 10.0 mi West 3.5 mph - N/A   Clear
7:35 PM 44.8 °F - 35.4 °F 70% 30.12 in 10.0 mi Calm Calm - N/A   Clear
7:55 PM 45.5 °F 44.2 °F 35.6 °F 68% 30.13 in 10.0 mi West 3.5 mph - N/A   Clear
8:15 PM 43.7 °F - 35.2 °F 72% 30.14 in 10.0 mi Calm Calm - N/A   Clear
8:35 PM 46.2 °F 44.1 °F 35.6 °F 66% 30.15 in 10.0 mi NW 4.6 mph - N/A   Clear
9:15 PM 44.1 °F - 34.2 °F 68% 30.15 in 10.0 mi Calm Calm - N/A   Clear
9:35 PM 43.7 °F - 34.5 °F 70% 30.15 in 10.0 mi Calm Calm - N/A   Clear
9:55 PM 43.0 °F 41.3 °F 34.5 °F 72% 30.15 in 10.0 mi WSW 3.5 mph - N/A   Clear
10:15 PM 41.5 °F 39.6 °F 34.2 °F 75% 30.15 in 10.0 mi WNW 3.5 mph - N/A   Clear
10:35 PM 40.3 °F 37.1 °F 33.8 °F 78% 30.16 in 10.0 mi West 4.6 mph - N/A   Clear
10:55 PM 40.1 °F 38.0 °F 33.6 °F 78% 30.17 in 10.0 mi WNW 3.5 mph - N/A   Clear
11:15 PM 40.1 °F - 33.4 °F 77% 30.17 in 10.0 mi Calm Calm - N/A   Clear
11:35 PM 39.4 °F - 33.1 °F 78% 30.17 in 10.0 mi Calm Calm - N/A   Clear
11:55 PM 38.1 °F - 32.7 °F 81% 30.17 in 10.0 mi Calm Calm - N/A   Clear